Time;durP1;ratioP1;P1;durP2;ratioP2;P2;SDS_P1;SDS_P2;PMS_P1;PMS_P2;Temp;Humidity;BMP_temperature;BMP_pressure;BME280_temperature;BME280_humidity;BME280_pressure;Samples;Min_cycle;Max_cycle;Signal;HPM_P1;HPM_P2
2023/01/19 00:01:30;;;;;;;;;;;19.80;99.90;;;;;;5029359;28;19916;-71
2023/01/19 00:04:00;;;;;;;;;;;19.80;99.90;;;;;;5028748;28;20026;-70
2023/01/19 00:06:27;;;;;;;;;;;19.80;99.90;;;;;;5031422;28;19919;-70
2023/01/19 00:08:54;;;;;;;;;;;19.80;99.90;;;;;;5038390;28;19920;-73
2023/01/19 00:11:20;;;;;;;;;;;19.70;99.90;;;;;;5030366;28;19959;-70
2023/01/19 00:13:50;;;;;;;;;;;19.70;99.90;;;;;;5031829;28;20057;-70
2023/01/19 00:16:17;;;;;;;;;;;19.70;99.90;;;;;;5030655;28;19917;-71
2023/01/19 00:18:45;;;;;;;;;;;19.70;99.90;;;;;;5029882;28;20027;-70
2023/01/19 00:21:13;;;;;;;;;;;19.80;99.90;;;;;;5029084;28;19912;-69
2023/01/19 00:23:41;;;;;;;;;;;19.90;99.90;;;;;;5027461;28;19917;-72
2023/01/19 00:26:09;;;;;;;;;;;19.80;99.90;;;;;;5031017;28;19954;-73
2023/01/19 00:28:36;;;;;;;;;;;19.80;99.90;;;;;;5028096;28;19924;-72
2023/01/19 00:31:02;;;;;;;;;;;19.90;99.90;;;;;;5029896;28;19919;-74
2023/01/19 00:33:29;;;;;;;;;;;19.90;99.90;;;;;;5027618;28;19920;-70
2023/01/19 00:35:55;;;;;;;;;;;20.00;99.90;;;;;;5028815;28;19917;-71
2023/01/19 00:38:22;;;;;;;;;;;20.00;99.90;;;;;;5027996;28;19913;-70
2023/01/19 00:40:49;;;;;;;;;;;20.10;99.90;;;;;;5030003;28;20244;-70
2023/01/19 00:43:21;;;;;;;;;;;20.10;99.90;;;;;;5028083;28;19923;-72
2023/01/19 00:45:47;;;;;;;;;;;20.10;99.90;;;;;;5027012;28;19920;-71
2023/01/19 00:48:14;;;;;;;;;;;20.10;99.90;;;;;;5027203;28;19944;-71
2023/01/19 00:50:41;;;;;;;;;;;20.00;99.90;;;;;;5027636;28;19952;-71
2023/01/19 00:53:08;;;;;;;;;;;20.00;99.90;;;;;;5029570;28;20525;-72
2023/01/19 00:55:34;;;;;;;;;;;20.00;99.90;;;;;;5027003;28;19970;-71
2023/01/19 00:58:02;;;;;;;;;;;20.00;99.90;;;;;;5029259;28;20290;-72
2023/01/19 01:00:29;;;;;;;;;;;20.00;99.90;;;;;;5030682;28;20272;-72
2023/01/19 01:02:56;;;;;;;;;;;20.00;99.90;;;;;;5024513;28;19966;-70
2023/01/19 01:05:23;;;;;;;;;;;20.00;99.90;;;;;;5028782;28;20035;-72
2023/01/19 01:07:50;;;;;;;;;;;20.00;99.90;;;;;;5028713;28;19924;-71
2023/01/19 01:10:21;;;;;;;;;;;19.90;99.90;;;;;;5034953;28;19982;-72
2023/01/19 01:12:47;;;;;;;;;;;19.90;99.90;;;;;;5031459;28;19913;-72
2023/01/19 01:15:15;;;;;;;;;;;19.90;99.90;;;;;;5034308;28;20002;-72
2023/01/19 01:17:45;;;;;;;;;;;20.00;99.90;;;;;;5030229;28;19970;-72
2023/01/19 01:20:15;;;;;;;;;;;20.00;99.90;;;;;;5029506;28;20346;-73
2023/01/19 01:22:44;;;;;;;;;;;20.00;99.90;;;;;;5030807;28;19987;-74
2023/01/19 01:25:14;;;;;;;;;;;20.00;99.90;;;;;;5029559;28;20040;-71
2023/01/19 01:27:41;;;;;;;;;;;20.10;99.90;;;;;;5029424;28;19970;-71
2023/01/19 01:30:09;;;;;;;;;;;20.20;99.90;;;;;;5027016;28;19920;-70
2023/01/19 01:32:35;;;;;;;;;;;20.20;99.90;;;;;;5026107;28;19978;-71
2023/01/19 01:35:03;;;;;;;;;;;20.20;99.90;;;;;;5026583;28;19921;-70
2023/01/19 01:37:29;;;;;;;;;;;20.30;99.90;;;;;;5025758;28;20003;-70
2023/01/19 01:39:56;;;;;;;;;;;20.40;99.90;;;;;;5025360;28;19927;-72
2023/01/19 01:42:29;;;;;;;;;;;20.30;99.90;;;;;;5025259;28;19943;-73
2023/01/19 01:44:57;;;;;;;;;;;20.20;99.90;;;;;;5023404;28;19940;-72
2023/01/19 01:47:33;;;;;;;;;;;20.30;99.90;;;;;;5023027;28;20387;-72
2023/01/19 01:50:03;;;;;;;;;;;20.30;99.90;;;;;;5023030;28;20102;-72
2023/01/19 01:52:37;;;;;;;;;;;20.30;99.90;;;;;;5026041;28;19916;-72
2023/01/19 01:55:07;;;;;;;;;;;20.30;99.90;;;;;;5027633;28;19924;-72
2023/01/19 01:57:35;;;;;;;;;;;20.40;99.90;;;;;;5027217;28;20366;-71
2023/01/19 02:00:02;;;;;;;;;;;20.40;99.90;;;;;;5027723;28;19916;-71
2023/01/19 02:05:21;;;;;;;;;;;20.30;99.90;;;;;;5027043;28;20051;-70
2023/01/19 02:13:28;;;;;;;;;;;20.30;99.90;;;;;;5027325;28;19920;-73
2023/01/19 02:15:57;;;;;;;;;;;20.30;99.90;;;;;;5029021;28;20003;-72
2023/01/19 02:18:26;;;;;;;;;;;20.50;99.90;;;;;;5025296;28;19920;-71
2023/01/19 02:20:52;;;;;;;;;;;20.70;99.90;;;;;;5026604;28;19917;-71
2023/01/19 02:23:23;;;;;;;;;;;20.70;99.90;;;;;;5027121;28;19917;-71
2023/01/19 02:25:50;;;;;;;;;;;20.80;99.90;;;;;;5027855;28;19924;-71
2023/01/19 02:28:17;;;;;;;;;;;20.80;99.90;;;;;;5027580;28;19920;-72
2023/01/19 02:30:44;;;;;;;;;;;20.80;99.90;;;;;;5026479;28;19924;-71
2023/01/19 02:33:10;;;;;;;;;;;20.80;99.90;;;;;;5026948;28;19924;-72
2023/01/19 02:35:39;;;;;;;;;;;20.80;99.90;;;;;;5026228;28;19917;-72
2023/01/19 02:38:05;;;;;;;;;;;20.80;99.90;;;;;;5026418;28;19920;-71
2023/01/19 02:40:32;;;;;;;;;;;20.70;99.90;;;;;;5028053;28;19917;-71
2023/01/19 02:43:00;;;;;;;;;;;20.80;99.90;;;;;;5030318;28;19924;-71
2023/01/19 02:45:27;;;;;;;;;;;20.80;99.90;;;;;;5025479;28;19970;-72
2023/01/19 02:47:55;;;;;;;;;;;20.70;99.90;;;;;;5023582;28;19971;-71
2023/01/19 02:50:45;;;;;;;;;;;20.70;99.90;;;;;;5019301;28;20708;-71
2023/01/19 02:53:21;;;;;;;;;;;20.70;99.90;;;;;;5021849;28;19932;-72
2023/01/19 02:55:53;;;;;;;;;;;20.70;99.90;;;;;;5024656;28;19917;-71
2023/01/19 02:58:19;;;;;;;;;;;20.60;99.90;;;;;;5022317;28;19917;-71
2023/01/19 03:00:46;;;;;;;;;;;20.60;99.90;;;;;;5023283;28;19974;-71
2023/01/19 03:03:15;;;;;;;;;;;20.50;99.90;;;;;;5025360;28;19924;-70
2023/01/19 03:05:48;;;;;;;;;;;20.50;99.90;;;;;;5028814;28;20002;-71
2023/01/19 03:08:15;;;;;;;;;;;20.60;99.90;;;;;;5028353;28;20509;-72
2023/01/19 03:10:57;;;;;;;;;;;20.60;99.90;;;;;;5027402;28;19974;-70
2023/01/19 03:13:41;;;;;;;;;;;20.70;99.90;;;;;;5023976;28;19959;-72
2023/01/19 03:16:17;;;;;;;;;;;20.70;99.90;;;;;;5025670;28;19924;-70
2023/01/19 03:18:47;;;;;;;;;;;20.70;99.90;;;;;;5023839;28;19972;-71
2023/01/19 03:21:18;;;;;;;;;;;20.80;99.90;;;;;;5026842;28;19924;-70
2023/01/19 03:23:45;;;;;;;;;;;20.80;99.90;;;;;;5024495;28;19944;-71
2023/01/19 03:26:15;;;;;;;;;;;20.80;99.90;;;;;;5031416;28;20443;-70
2023/01/19 03:28:43;;;;;;;;;;;20.70;99.90;;;;;;5031373;28;19921;-71
2023/01/19 03:31:12;;;;;;;;;;;20.70;99.90;;;;;;5029928;28;20374;-71
2023/01/19 03:33:41;;;;;;;;;;;20.80;99.90;;;;;;5024217;28;19960;-70
2023/01/19 03:36:11;;;;;;;;;;;20.70;99.90;;;;;;5025792;28;19991;-70
2023/01/19 03:38:39;;;;;;;;;;;20.60;99.90;;;;;;5026896;28;19917;-71
2023/01/19 03:41:10;;;;;;;;;;;20.60;99.90;;;;;;5026669;28;20414;-72
2023/01/19 03:43:43;;;;;;;;;;;20.60;99.90;;;;;;5020570;28;19959;-69
2023/01/19 03:46:11;;;;;;;;;;;20.60;99.90;;;;;;5024039;28;19952;-70
2023/01/19 03:48:44;;;;;;;;;;;20.50;99.90;;;;;;5023380;28;19924;-71
2023/01/19 03:51:12;;;;;;;;;;;20.60;99.90;;;;;;5022337;28;19917;-71
2023/01/19 03:53:38;;;;;;;;;;;20.70;99.90;;;;;;5021836;28;19913;-71
2023/01/19 03:56:05;;;;;;;;;;;20.80;99.90;;;;;;5022633;28;19925;-73
2023/01/19 03:58:32;;;;;;;;;;;20.80;99.90;;;;;;5027660;28;19908;-72
2023/01/19 04:00:59;;;;;;;;;;;20.80;99.90;;;;;;5024865;28;19974;-73
2023/01/19 04:03:29;;;;;;;;;;;20.80;99.90;;;;;;5022193;28;19921;-72
2023/01/19 04:05:57;;;;;;;;;;;20.60;99.90;;;;;;5023852;28;19920;-72
2023/01/19 04:08:24;;;;;;;;;;;20.60;99.90;;;;;;5029755;28;19924;-72
2023/01/19 04:10:50;;;;;;;;;;;20.60;99.90;;;;;;5025553;28;19923;-73
2023/01/19 04:13:17;;;;;;;;;;;20.70;99.90;;;;;;5019605;28;19962;-72
2023/01/19 04:15:44;;;;;;;;;;;20.80;99.90;;;;;;5021103;28;19916;-72
2023/01/19 04:18:14;;;;;;;;;;;20.80;99.90;;;;;;5023678;28;20474;-71
2023/01/19 04:20:40;;;;;;;;;;;20.90;99.90;;;;;;5023818;28;20014;-71
2023/01/19 04:23:07;;;;;;;;;;;20.90;99.90;;;;;;5026921;28;20314;-70
2023/01/19 04:25:33;;;;;;;;;;;20.80;99.90;;;;;;5026996;28;20378;-71
2023/01/19 04:28:00;;;;;;;;;;;20.80;99.90;;;;;;5024208;28;19925;-71
2023/01/19 04:30:27;;;;;;;;;;;20.60;99.90;;;;;;5020999;28;19912;-71
2023/01/19 04:32:56;;;;;;;;;;;20.50;99.90;;;;;;5019138;28;19951;-71
2023/01/19 04:35:23;;;;;;;;;;;20.50;99.90;;;;;;5022766;28;20003;-71
2023/01/19 04:37:51;;;;;;;;;;;20.50;99.90;;;;;;5025291;28;20288;-70
2023/01/19 04:40:17;;;;;;;;;;;20.50;99.90;;;;;;5025445;28;19916;-70
2023/01/19 04:42:44;;;;;;;;;;;20.60;99.90;;;;;;5026360;28;19918;-72
2023/01/19 04:45:14;;;;;;;;;;;20.60;99.90;;;;;;5023479;28;20375;-70
2023/01/19 04:47:44;;;;;;;;;;;20.70;99.90;;;;;;5025091;28;19925;-71
2023/01/19 04:50:10;;;;;;;;;;;20.60;99.90;;;;;;5023004;28;19963;-70
2023/01/19 04:52:37;;;;;;;;;;;20.70;99.90;;;;;;5024993;28;19917;-70
2023/01/19 04:55:05;;;;;;;;;;;20.70;99.90;;;;;;5021987;28;20386;-69
2023/01/19 04:57:32;;;;;;;;;;;20.70;99.90;;;;;;5025800;28;19967;-70
2023/01/19 04:59:59;;;;;;;;;;;20.70;99.90;;;;;;5025346;28;19924;-70
2023/01/19 05:02:26;;;;;;;;;;;20.60;99.90;;;;;;5024217;28;19917;-71
2023/01/19 05:04:53;;;;;;;;;;;20.60;99.90;;;;;;5026224;28;20025;-70
2023/01/19 05:07:21;;;;;;;;;;;20.60;99.90;;;;;;5023175;28;20026;-71
2023/01/19 05:09:54;;;;;;;;;;;20.60;99.90;;;;;;5034120;28;19916;-71
2023/01/19 05:12:21;;;;;;;;;;;20.60;99.90;;;;;;5031036;28;19958;-72
2023/01/19 05:14:53;;;;;;;;;;;20.60;99.80;;;;;;5028696;28;19916;-71
2023/01/19 05:17:20;;;;;;;;;;;20.50;99.90;;;;;;5024036;28;20378;-70
2023/01/19 05:19:47;;;;;;;;;;;20.50;99.90;;;;;;5028372;28;19968;-71
2023/01/19 05:22:14;;;;;;;;;;;20.50;99.90;;;;;;5026055;28;20379;-71
2023/01/19 05:24:41;;;;;;;;;;;20.50;99.90;;;;;;5019780;28;19909;-71
2023/01/19 05:27:08;;;;;;;;;;;20.60;99.90;;;;;;5025265;28;20128;-70
2023/01/19 05:29:45;;;;;;;;;;;20.50;99.90;;;;;;5033313;28;20098;-70
2023/01/19 05:32:12;;;;;;;;;;;20.50;99.90;;;;;;5031501;28;19920;-71
2023/01/19 05:34:39;;;;;;;;;;;20.60;99.90;;;;;;5024380;28;20350;-71
2023/01/19 05:37:06;;;;;;;;;;;20.60;99.90;;;;;;5026324;28;21766;-71
2023/01/19 05:39:33;;;;;;;;;;;20.70;99.90;;;;;;5024487;28;20232;-71
2023/01/19 05:41:59;;;;;;;;;;;20.80;99.90;;;;;;5028937;28;19913;-70
2023/01/19 05:44:26;;;;;;;;;;;20.80;99.90;;;;;;5031026;28;19980;-71
2023/01/19 05:46:53;;;;;;;;;;;20.80;99.90;;;;;;5029957;28;20385;-71
2023/01/19 05:49:19;;;;;;;;;;;20.80;99.90;;;;;;5023370;28;19925;-70
2023/01/19 05:51:46;;;;;;;;;;;20.80;99.90;;;;;;5022819;28;19917;-70
2023/01/19 05:54:14;;;;;;;;;;;20.80;99.90;;;;;;5030242;28;19959;-71
2023/01/19 05:56:41;;;;;;;;;;;20.80;99.90;;;;;;5023724;28;20982;-71
2023/01/19 05:59:08;;;;;;;;;;;20.70;99.90;;;;;;5021653;28;19917;-69
2023/01/19 06:01:36;;;;;;;;;;;20.70;99.90;;;;;;5023135;28;19912;-70
2023/01/19 06:04:02;;;;;;;;;;;20.70;99.90;;;;;;5021534;28;19919;-70
2023/01/19 06:06:30;;;;;;;;;;;20.60;99.90;;;;;;5028200;28;20006;-70
2023/01/19 06:08:56;;;;;;;;;;;20.60;99.90;;;;;;5035065;28;20345;-70
2023/01/19 06:11:24;;;;;;;;;;;20.60;99.90;;;;;;5024763;28;20083;-70
2023/01/19 06:13:51;;;;;;;;;;;20.60;99.90;;;;;;5022137;28;21268;-70
2023/01/19 06:16:18;;;;;;;;;;;20.50;99.90;;;;;;5023859;28;19917;-70
2023/01/19 06:18:45;;;;;;;;;;;20.50;99.90;;;;;;5022006;28;19913;-72
2023/01/19 06:21:13;;;;;;;;;;;20.50;99.90;;;;;;5026563;28;19974;-72
2023/01/19 06:23:39;;;;;;;;;;;20.40;99.90;;;;;;5024407;28;19948;-71
2023/01/19 06:26:06;;;;;;;;;;;20.40;99.90;;;;;;5029775;28;19909;-71
2023/01/19 06:28:33;;;;;;;;;;;20.40;99.90;;;;;;5027582;28;20311;-71
2023/01/19 06:30:59;;;;;;;;;;;20.40;99.90;;;;;;5030712;28;19913;-71
2023/01/19 06:33:26;;;;;;;;;;;20.40;99.90;;;;;;5025778;28;19927;-71
2023/01/19 06:35:53;;;;;;;;;;;20.40;99.90;;;;;;5026190;28;20359;-72
2023/01/19 06:38:20;;;;;;;;;;;20.40;99.90;;;;;;5026750;28;19913;-71
2023/01/19 06:41:01;;;;;;;;;;;20.40;99.90;;;;;;5025749;28;19909;-72
2023/01/19 06:43:30;;;;;;;;;;;20.40;99.90;;;;;;5024377;28;20619;-72
2023/01/19 06:46:02;;;;;;;;;;;20.40;99.90;;;;;;5023285;28;20044;-72
2023/01/19 06:48:28;;;;;;;;;;;20.40;99.90;;;;;;5023358;28;19921;-70
2023/01/19 06:50:55;;;;;;;;;;;20.40;99.90;;;;;;5026690;28;19917;-71
2023/01/19 06:53:22;;;;;;;;;;;20.40;99.90;;;;;;5024647;28;19962;-72
2023/01/19 06:55:52;;;;;;;;;;;20.40;99.90;;;;;;5024053;28;19958;-69
2023/01/19 06:58:19;;;;;;;;;;;20.50;99.90;;;;;;5020845;28;19916;-73
2023/01/19 07:00:45;;;;;;;;;;;20.40;99.90;;;;;;5021863;28;20524;-71
2023/01/19 07:03:18;;;;;;;;;;;20.40;99.90;;;;;;5022395;28;19913;-71
2023/01/19 07:06:14;;;;;;;;;;;20.40;99.90;;;;;;5027041;28;20019;-72
2023/01/19 07:08:41;;;;;;;;;;;20.40;99.90;;;;;;4967220;28;20024;-71
2023/01/19 07:11:13;;;;;;;;;;;20.40;99.90;;;;;;5034538;28;19920;-71
2023/01/19 07:13:40;;;;;;;;;;;20.40;99.90;;;;;;5040330;28;19921;-71
2023/01/19 07:16:08;;;;;;;;;;;20.40;99.90;;;;;;5033839;28;19975;-71
2023/01/19 07:18:35;;;;;;;;;;;20.40;99.90;;;;;;5036069;28;19917;-71
2023/01/19 07:21:02;;;;;;;;;;;20.40;99.90;;;;;;5047648;28;19918;-69
2023/01/19 07:23:43;;;;;;;;;;;20.40;99.90;;;;;;5036872;28;19913;-68
2023/01/19 07:26:10;;;;;;;;;;;20.50;99.90;;;;;;5030561;28;19960;-71
2023/01/19 07:28:37;;;;;;;;;;;20.50;99.90;;;;;;5029103;28;19920;-71
2023/01/19 07:31:04;;;;;;;;;;;20.50;99.90;;;;;;5022588;28;19960;-71
2023/01/19 07:33:34;;;;;;;;;;;20.50;99.90;;;;;;5025561;28;19932;-71
2023/01/19 07:36:01;;;;;;;;;;;20.50;99.90;;;;;;5021672;28;19912;-72
2023/01/19 07:38:31;;;;;;;;;;;20.50;99.90;;;;;;5023213;28;20026;-72
2023/01/19 07:41:02;;;;;;;;;;;20.50;99.90;;;;;;5028175;28;19913;-70
2023/01/19 07:43:28;;;;;;;;;;;20.50;99.90;;;;;;5020436;28;19926;-71
2023/01/19 07:45:56;;;;;;;;;;;20.50;99.90;;;;;;5019843;28;19952;-70
2023/01/19 07:48:23;;;;;;;;;;;20.40;99.90;;;;;;5028806;28;19921;-70
2023/01/19 07:50:50;;;;;;;;;;;20.40;99.90;;;;;;5027407;28;19928;-71
2023/01/19 07:53:17;;;;;;;;;;;20.40;99.90;;;;;;5028866;28;19916;-71
2023/01/19 07:55:43;;;;;;;;;;;20.30;99.90;;;;;;5030261;28;20328;-69
2023/01/19 07:58:10;;;;;;;;;;;20.30;99.90;;;;;;5028327;28;19912;-70
2023/01/19 08:00:38;;;;;;;;;;;20.30;99.90;;;;;;5028551;28;19917;-70
2023/01/19 08:03:05;;;;;;;;;;;20.30;99.90;;;;;;5030382;28;19947;-70
2023/01/19 08:05:32;;;;;;;;;;;20.30;99.90;;;;;;5032664;28;19913;-70
2023/01/19 08:07:59;;;;;;;;;;;20.20;99.90;;;;;;5037066;28;20355;-71
2023/01/19 08:10:27;;;;;;;;;;;20.20;99.90;;;;;;5031595;28;19920;-71
2023/01/19 08:12:54;;;;;;;;;;;20.10;99.90;;;;;;5031159;28;20269;-69
2023/01/19 08:15:22;;;;;;;;;;;20.10;99.90;;;;;;5031650;28;19924;-71
2023/01/19 08:17:59;;;;;;;;;;;20.10;99.90;;;;;;5032899;28;19916;-71
2023/01/19 08:20:27;;;;;;;;;;;20.00;99.90;;;;;;5028550;28;19974;-70
2023/01/19 08:23:04;;;;;;;;;;;20.00;99.90;;;;;;5028369;28;19924;-70
2023/01/19 08:25:41;;;;;;;;;;;20.00;99.90;;;;;;5032859;28;19999;-71
2023/01/19 08:28:08;;;;;;;;;;;20.00;99.90;;;;;;5027970;28;20727;-71
2023/01/19 08:30:35;;;;;;;;;;;20.00;99.90;;;;;;5028963;28;19991;-71
2023/01/19 08:33:06;;;;;;;;;;;20.00;99.90;;;;;;5031359;28;20014;-71
2023/01/19 08:35:35;;;;;;;;;;;19.90;99.90;;;;;;5031234;28;19921;-70
2023/01/19 08:38:03;;;;;;;;;;;19.90;99.90;;;;;;5030023;28;20385;-71
2023/01/19 08:40:32;;;;;;;;;;;19.90;99.90;;;;;;5028943;28;20324;-71
2023/01/19 08:43:03;;;;;;;;;;;19.90;99.90;;;;;;5031169;28;19913;-71
2023/01/19 08:45:30;;;;;;;;;;;19.90;99.90;;;;;;5029733;28;19959;-71
2023/01/19 08:48:00;;;;;;;;;;;19.80;99.90;;;;;;5030315;28;19943;-71
2023/01/19 08:50:31;;;;;;;;;;;19.80;99.90;;;;;;5028759;28;19932;-72
2023/01/19 08:52:58;;;;;;;;;;;19.80;99.90;;;;;;5030485;28;19913;-72
2023/01/19 08:55:25;;;;;;;;;;;19.90;99.90;;;;;;5028915;28;20043;-71
2023/01/19 08:57:52;;;;;;;;;;;20.00;99.90;;;;;;5029775;28;20848;-70
2023/01/19 09:00:20;;;;;;;;;;;20.20;99.90;;;;;;5028307;28;20360;-71
2023/01/19 09:02:47;;;;;;;;;;;20.20;99.90;;;;;;5028826;28;19920;-72
2023/01/19 09:05:14;;;;;;;;;;;20.00;99.90;;;;;;5026487;28;19920;-72
2023/01/19 09:07:40;;;;;;;;;;;19.90;99.90;;;;;;5028843;28;19963;-71
2023/01/19 09:10:07;;;;;;;;;;;19.70;99.90;;;;;;5042563;28;19923;-70
2023/01/19 09:12:34;;;;;;;;;;;19.60;99.90;;;;;;5028630;28;19913;-71
2023/01/19 09:15:00;;;;;;;;;;;19.50;99.90;;;;;;5027246;28;19917;-72
2023/01/19 09:17:27;;;;;;;;;;;19.40;99.90;;;;;;5028630;28;19952;-72
2023/01/19 09:19:54;;;;;;;;;;;19.30;99.90;;;;;;5027464;28;19912;-71
2023/01/19 09:22:20;;;;;;;;;;;19.20;99.90;;;;;;5027538;28;20223;-71
2023/01/19 09:24:47;;;;;;;;;;;19.10;99.90;;;;;;5026088;28;20351;-71
2023/01/19 09:27:14;;;;;;;;;;;19.10;99.90;;;;;;5027220;28;20055;-71
2023/01/19 09:29:41;;;;;;;;;;;19.00;99.90;;;;;;5029833;28;20384;-71
2023/01/19 09:32:09;;;;;;;;;;;19.00;99.90;;;;;;5033463;28;19925;-69
2023/01/19 09:34:36;;;;;;;;;;;18.90;99.90;;;;;;5027925;28;19944;-73
2023/01/19 09:37:03;;;;;;;;;;;18.90;99.90;;;;;;5029943;28;19912;-69
2023/01/19 09:39:29;;;;;;;;;;;19.00;99.90;;;;;;5026746;28;19936;-70
2023/01/19 09:42:00;;;;;;;;;;;19.00;99.90;;;;;;5026424;28;20558;-69
2023/01/19 09:44:33;;;;;;;;;;;18.90;99.90;;;;;;5027004;28;20417;-73
2023/01/19 09:47:01;;;;;;;;;;;19.00;99.90;;;;;;5028257;28;19916;-72
2023/01/19 09:49:31;;;;;;;;;;;19.00;99.90;;;;;;5027722;28;20388;-71
2023/01/19 09:51:57;;;;;;;;;;;19.00;99.90;;;;;;5029201;28;19939;-72
2023/01/19 09:54:56;;;;;;;;;;;19.00;99.90;;;;;;5026568;28;20153;-71
2023/01/19 09:57:26;;;;;;;;;;;19.10;99.90;;;;;;4994801;28;20000;-72
2023/01/19 09:59:58;;;;;;;;;;;19.10;99.90;;;;;;5026664;28;19912;-73
2023/01/19 10:02:37;;;;;;;;;;;19.20;99.90;;;;;;5028307;28;19947;-71
2023/01/19 10:05:05;;;;;;;;;;;19.20;99.90;;;;;;5027118;28;19924;-72
2023/01/19 10:07:42;;;;;;;;;;;19.30;99.90;;;;;;5029439;28;19920;-71
2023/01/19 10:10:12;;;;;;;;;;;19.20;99.90;;;;;;5045278;28;19924;-71
2023/01/19 10:12:51;;;;;;;;;;;19.20;99.90;;;;;;5027196;28;19917;-71
2023/01/19 10:15:37;;;;;;;;;;;19.10;99.90;;;;;;5025400;28;19913;-72
2023/01/19 10:18:34;;;;;;;;;;;19.10;99.90;;;;;;5014488;28;20829;-71
2023/01/19 10:21:01;;;;;;;;;;;19.00;99.90;;;;;;5025234;28;20013;-70
2023/01/19 10:23:37;;;;;;;;;;;19.00;99.90;;;;;;5023871;28;19939;-70
2023/01/19 10:26:13;;;;;;;;;;;19.00;99.90;;;;;;5024524;28;19924;-71
2023/01/19 10:28:40;;;;;;;;;;;19.00;99.90;;;;;;5024034;28;20073;-69
2023/01/19 10:31:08;;;;;;;;;;;19.00;99.90;;;;;;5024241;28;20355;-70
2023/01/19 10:33:36;;;;;;;;;;;19.10;99.90;;;;;;5024983;28;19924;-71
2023/01/19 10:36:04;;;;;;;;;;;19.10;99.90;;;;;;5025490;28;20339;-71
2023/01/19 10:38:32;;;;;;;;;;;19.10;99.90;;;;;;5024704;28;19916;-72
2023/01/19 10:41:12;;;;;;;;;;;19.10;99.90;;;;;;5026501;28;19952;-72
2023/01/19 10:43:40;;;;;;;;;;;19.10;99.90;;;;;;5025369;28;19920;-70
2023/01/19 10:46:16;;;;;;;;;;;19.20;99.90;;;;;;5030730;28;19923;-71
2023/01/19 10:48:44;;;;;;;;;;;19.20;99.90;;;;;;5040974;28;19921;-72
2023/01/19 10:51:11;;;;;;;;;;;19.20;99.90;;;;;;5027001;28;19916;-75
2023/01/19 10:53:38;;;;;;;;;;;19.20;99.90;;;;;;5027656;28;20437;-72
2023/01/19 10:56:13;;;;;;;;;;;19.10;99.90;;;;;;5027524;28;20423;-76
2023/01/19 10:58:40;;;;;;;;;;;19.10;99.90;;;;;;5026776;28;19917;-73
2023/01/19 11:01:14;;;;;;;;;;;19.10;99.90;;;;;;5026531;28;19916;-75
2023/01/19 11:03:40;;;;;;;;;;;19.00;99.90;;;;;;5024299;28;19917;-72
2023/01/19 11:06:16;;;;;;;;;;;19.00;99.90;;;;;;5027624;28;19909;-72
2023/01/19 11:08:43;;;;;;;;;;;19.00;99.90;;;;;;5036059;28;19921;-72
2023/01/19 11:11:11;;;;;;;;;;;19.00;99.90;;;;;;5027779;28;19963;-72
2023/01/19 11:13:38;;;;;;;;;;;19.00;99.90;;;;;;5026414;28;19924;-71
2023/01/19 11:16:40;;;;;;;;;;;19.10;99.90;;;;;;5024519;28;19955;-70
2023/01/19 11:19:16;;;;;;;;;;;19.00;99.90;;;;;;4965765;28;20686;-71
2023/01/19 11:21:43;;;;;;;;;;;19.00;99.90;;;;;;5018204;28;19916;-72
2023/01/19 11:24:13;;;;;;;;;;;19.00;99.90;;;;;;5030140;28;19916;-72
2023/01/19 11:26:47;;;;;;;;;;;19.00;99.90;;;;;;5029876;28;20249;-73
2023/01/19 11:29:21;;;;;;;;;;;18.90;99.90;;;;;;5031762;28;19925;-73
2023/01/19 11:31:50;;;;;;;;;;;18.90;99.90;;;;;;5029218;28;20324;-72
2023/01/19 11:34:31;;;;;;;;;;;18.90;99.90;;;;;;5028850;28;19923;-72
2023/01/19 11:37:13;;;;;;;;;;;18.90;99.90;;;;;;5030201;28;20804;-71
2023/01/19 11:39:54;;;;;;;;;;;19.00;99.90;;;;;;5028309;28;19934;-73
2023/01/19 11:42:21;;;;;;;;;;;19.00;99.90;;;;;;5028946;28;19917;-74
2023/01/19 11:44:48;;;;;;;;;;;18.90;99.90;;;;;;5028238;28;19962;-72
2023/01/19 11:47:25;;;;;;;;;;;18.90;99.90;;;;;;5030264;28;19944;-73
2023/01/19 11:49:58;;;;;;;;;;;18.90;99.90;;;;;;5028593;28;19920;-74
2023/01/19 11:52:33;;;;;;;;;;;18.90;99.90;;;;;;5030213;28;19917;-74
2023/01/19 11:55:35;;;;;;;;;;;18.90;99.90;;;;;;5030029;28;19971;-74
2023/01/19 11:58:01;;;;;;;;;;;18.90;99.90;;;;;;4973820;28;19980;-72
2023/01/19 12:00:35;;;;;;;;;;;18.90;99.90;;;;;;5018115;28;20730;-75
2023/01/19 12:03:13;;;;;;;;;;;18.90;99.90;;;;;;5030031;28;20387;-73
2023/01/19 12:05:42;;;;;;;;;;;18.90;99.90;;;;;;5029803;28;19948;-74
2023/01/19 12:08:13;;;;;;;;;;;18.90;99.90;;;;;;5029674;28;19925;-72
2023/01/19 12:10:42;;;;;;;;;;;18.90;99.90;;;;;;5028534;28;19962;-70
2023/01/19 12:13:23;;;;;;;;;;;18.90;99.90;;;;;;5038021;28;19912;-73
2023/01/19 12:15:53;;;;;;;;;;;18.90;99.90;;;;;;5031923;28;19930;-73
2023/01/19 12:18:24;;;;;;;;;;;18.90;99.90;;;;;;5030424;28;19917;-72
2023/01/19 12:20:52;;;;;;;;;;;18.90;99.90;;;;;;5033742;28;20413;-72
2023/01/19 12:23:34;;;;;;;;;;;18.90;99.90;;;;;;5035069;28;20011;-72
2023/01/19 12:26:01;;;;;;;;;;;18.80;99.90;;;;;;5029940;28;20252;-72
2023/01/19 12:28:30;;;;;;;;;;;18.80;99.90;;;;;;5031104;28;19921;-72
2023/01/19 12:30:58;;;;;;;;;;;18.80;99.90;;;;;;5032044;28;20043;-72
2023/01/19 12:33:34;;;;;;;;;;;18.80;99.90;;;;;;5031927;28;19932;-72
2023/01/19 12:36:24;;;;;;;;;;;18.80;99.90;;;;;;5032240;28;19924;-72
2023/01/19 12:38:51;;;;;;;;;;;18.80;99.90;;;;;;5023011;28;19959;-72
2023/01/19 12:41:34;;;;;;;;;;;18.80;99.90;;;;;;5043863;28;20359;-73
2023/01/19 12:44:10;;;;;;;;;;;18.90;99.90;;;;;;5039355;28;19999;-74
2023/01/19 12:46:50;;;;;;;;;;;18.80;99.90;;;;;;5033061;28;19923;-72
2023/01/19 12:49:26;;;;;;;;;;;18.90;99.90;;;;;;5048711;28;20413;-72
2023/01/19 12:52:12;;;;;;;;;;;18.80;99.90;;;;;;5032635;28;19958;-72
2023/01/19 12:54:48;;;;;;;;;;;18.80;99.90;;;;;;5017340;28;19919;-71
2023/01/19 12:57:19;;;;;;;;;;;18.70;99.90;;;;;;5028880;28;19962;-71
2023/01/19 12:59:46;;;;;;;;;;;18.70;99.90;;;;;;5031611;28;20407;-75
2023/01/19 13:02:33;;;;;;;;;;;18.70;99.90;;;;;;5033282;28;20363;-73
2023/01/19 13:05:16;;;;;;;;;;;18.70;99.90;;;;;;5020564;28;19919;-75
2023/01/19 13:08:01;;;;;;;;;;;18.70;99.90;;;;;;5037624;28;19963;-75
2023/01/19 13:10:45;;;;;;;;;;;18.60;99.90;;;;;;5030665;28;19913;-72
2023/01/19 13:13:17;;;;;;;;;;;18.60;99.90;;;;;;5029292;28;19923;-73
2023/01/19 13:15:43;;;;;;;;;;;18.60;99.90;;;;;;5038674;28;19940;-73
2023/01/19 13:18:17;;;;;;;;;;;18.50;99.90;;;;;;5035209;28;19924;-73
2023/01/19 13:20:46;;;;;;;;;;;18.50;99.90;;;;;;5035012;28;19992;-73
2023/01/19 13:23:17;;;;;;;;;;;18.50;99.90;;;;;;5032355;28;19916;-73
2023/01/19 13:25:47;;;;;;;;;;;18.40;99.90;;;;;;5030642;28;19920;-73
2023/01/19 13:28:14;;;;;;;;;;;18.40;99.90;;;;;;5035947;28;20402;-73
2023/01/19 13:30:52;;;;;;;;;;;18.30;99.90;;;;;;5030204;28;19913;-71
2023/01/19 13:33:21;;;;;;;;;;;18.30;99.90;;;;;;5027419;28;19964;-72
2023/01/19 13:35:55;;;;;;;;;;;18.30;99.90;;;;;;5030304;28;19917;-71
2023/01/19 13:38:22;;;;;;;;;;;18.30;99.90;;;;;;5027669;28;21915;-72
2023/01/19 13:40:49;;;;;;;;;;;18.30;99.90;;;;;;5030921;28;19924;-71
2023/01/19 13:43:22;;;;;;;;;;;18.30;99.90;;;;;;5030897;28;20172;-72
2023/01/19 13:45:50;;;;;;;;;;;18.30;99.90;;;;;;5029889;28;19916;-71
2023/01/19 13:48:20;;;;;;;;;;;18.20;99.90;;;;;;5033079;28;19944;-72
2023/01/19 13:50:57;;;;;;;;;;;18.20;99.90;;;;;;5033419;28;19913;-72
2023/01/19 13:53:24;;;;;;;;;;;18.20;99.90;;;;;;5034054;28;19924;-72
2023/01/19 13:56:20;;;;;;;;;;;18.20;99.90;;;;;;5031876;28;19919;-71
2023/01/19 13:59:03;;;;;;;;;;;18.20;99.90;;;;;;5015986;28;19924;-73
2023/01/19 14:01:31;;;;;;;;;;;18.10;99.90;;;;;;5027422;28;20004;-70
2023/01/19 14:03:58;;;;;;;;;;;18.10;99.90;;;;;;5027584;28;19920;-70
2023/01/19 14:06:38;;;;;;;;;;;18.00;99.90;;;;;;5027205;28;19913;-71
2023/01/19 14:09:06;;;;;;;;;;;18.00;99.90;;;;;;5039882;28;19935;-72
2023/01/19 14:11:33;;;;;;;;;;;18.00;99.90;;;;;;5030194;28;20718;-71
2023/01/19 14:13:59;;;;;;;;;;;18.00;99.90;;;;;;5027439;28;19912;-72
2023/01/19 14:16:26;;;;;;;;;;;18.00;99.90;;;;;;5027600;28;20016;-71
2023/01/19 14:19:01;;;;;;;;;;;17.90;99.90;;;;;;5026773;28;19916;-71
2023/01/19 14:21:37;;;;;;;;;;;17.90;99.90;;;;;;5028779;28;20062;-72
2023/01/19 14:24:08;;;;;;;;;;;17.90;99.90;;;;;;5026811;28;21693;-71
2023/01/19 14:26:38;;;;;;;;;;;17.90;99.90;;;;;;5029274;28;20028;-71
2023/01/19 14:29:23;;;;;;;;;;;17.90;99.90;;;;;;5025817;28;19925;-71
2023/01/19 14:31:50;;;;;;;;;;;17.90;99.90;;;;;;5027863;28;19998;-71
2023/01/19 14:34:29;;;;;;;;;;;17.80;99.90;;;;;;5027289;28;19913;-70
2023/01/19 14:36:56;;;;;;;;;;;17.90;99.90;;;;;;5028576;28;19919;-71
2023/01/19 14:39:23;;;;;;;;;;;17.90;99.90;;;;;;5026345;28;19916;-71
2023/01/19 14:41:52;;;;;;;;;;;17.90;99.90;;;;;;5029458;28;20022;-72